createdAt,value
2017-08-19T00:02:19.970Z,17.66
2017-08-19T00:04:47.479Z,17.54
2017-08-19T00:07:15.038Z,17.51
2017-08-19T00:09:42.490Z,17.13
2017-08-19T00:12:10.054Z,17.22
2017-08-19T00:14:38.508Z,17.23
2017-08-19T00:17:05.955Z,16.95
2017-08-19T00:19:33.465Z,16.93
2017-08-19T00:22:00.911Z,16.86
2017-08-19T00:24:28.397Z,16.82
2017-08-19T00:26:56.996Z,16.82
2017-08-19T00:29:24.473Z,16.75
2017-08-19T00:31:51.929Z,16.80
2017-08-19T00:34:19.409Z,16.72
2017-08-19T00:36:46.885Z,16.63
2017-08-19T00:39:14.409Z,16.70
2017-08-19T00:41:41.892Z,16.74
2017-08-19T00:44:09.397Z,16.66
2017-08-19T00:46:36.917Z,16.38
2017-08-19T00:49:04.412Z,16.26
2017-08-19T00:51:31.892Z,16.33
2017-08-19T00:53:59.383Z,16.33
2017-08-19T00:56:26.861Z,16.38
2017-08-19T00:58:54.402Z,16.35
2017-08-19T01:01:22.000Z,16.34
2017-08-19T01:03:49.596Z,16.39
2017-08-19T01:06:17.064Z,16.35
2017-08-19T01:08:44.614Z,16.30
2017-08-19T01:11:12.094Z,16.36
2017-08-19T01:13:39.693Z,16.31
2017-08-19T01:16:07.159Z,16.22
2017-08-19T01:18:34.620Z,16.22
2017-08-19T01:21:02.101Z,16.17
2017-08-19T01:23:29.562Z,16.16
2017-08-19T01:26:09.057Z,15.89
2017-08-19T01:28:36.538Z,15.97
2017-08-19T01:31:04.029Z,15.39
2017-08-19T01:33:31.514Z,15.67
2017-08-19T01:35:59.050Z,15.59
2017-08-19T01:38:26.602Z,15.75
2017-08-19T01:40:54.157Z,15.74
2017-08-19T01:43:21.648Z,15.77
2017-08-19T01:45:49.105Z,15.67
2017-08-19T01:48:16.629Z,15.74
2017-08-19T01:50:44.107Z,15.94
2017-08-19T01:53:11.593Z,15.54
2017-08-19T01:55:39.048Z,15.73
2017-08-19T01:58:06.552Z,15.46
2017-08-19T02:00:33.995Z,15.43
2017-08-19T02:03:01.449Z,15.55
2017-08-19T02:05:28.925Z,15.65
2017-08-19T02:07:56.475Z,15.67
2017-08-19T02:10:23.988Z,15.34
2017-08-19T02:12:51.449Z,15.60
2017-08-19T02:15:18.930Z,16.12
2017-08-19T02:17:46.402Z,15.95
2017-08-19T02:20:13.977Z,16.10
2017-08-19T02:22:41.539Z,16.11
2017-08-19T02:25:09.104Z,16.27
2017-08-19T02:27:36.612Z,16.34
2017-08-19T02:30:04.116Z,16.24
2017-08-19T02:32:31.629Z,16.31
2017-08-19T02:34:59.076Z,16.33
2017-08-19T02:37:26.558Z,16.23
2017-08-19T02:39:54.041Z,16.11
2017-08-19T02:42:21.641Z,16.19
2017-08-19T02:44:49.104Z,16.05
2017-08-19T02:47:16.606Z,16.14
2017-08-19T02:49:44.113Z,16.20
2017-08-19T02:52:11.830Z,16.17
2017-08-19T02:54:39.317Z,16.15
2017-08-19T02:57:06.845Z,16.22
2017-08-19T02:59:34.324Z,16.39
2017-08-19T03:02:01.876Z,16.27
2017-08-19T03:04:29.893Z,16.30
2017-08-19T03:06:57.339Z,16.31
2017-08-19T03:09:24.840Z,16.32
2017-08-19T03:11:52.395Z,16.21
2017-08-19T03:14:19.961Z,16.23
2017-08-19T03:16:47.840Z,16.19
2017-08-19T03:19:15.367Z,16.18
2017-08-19T03:21:42.816Z,16.09
2017-08-19T03:24:10.343Z,16.30
2017-08-19T03:26:37.870Z,16.23
2017-08-19T03:29:05.682Z,16.23
2017-08-19T03:31:33.141Z,16.07
2017-08-19T03:34:00.749Z,16.08
2017-08-19T03:36:28.216Z,16.06
2017-08-19T03:38:55.670Z,16.14
2017-08-19T03:41:23.152Z,16.08
2017-08-19T03:43:50.613Z,16.06
2017-08-19T03:46:18.105Z,15.95
2017-08-19T03:48:45.562Z,15.93
2017-08-19T03:51:13.184Z,15.82
2017-08-19T03:53:40.645Z,15.77
2017-08-19T03:56:08.177Z,15.65
2017-08-19T03:58:35.630Z,15.54
2017-08-19T04:01:03.174Z,15.41
2017-08-19T04:03:30.670Z,15.52
2017-08-19T04:05:58.130Z,15.41
2017-08-19T04:08:25.638Z,15.22
2017-08-19T04:10:53.109Z,15.13
2017-08-19T04:13:20.591Z,15.07
2017-08-19T04:15:48.118Z,14.89
2017-08-19T04:18:15.601Z,14.68
2017-08-19T04:20:43.066Z,14.65
2017-08-19T04:23:10.630Z,14.72
2017-08-19T04:25:38.091Z,14.58
2017-08-19T04:28:05.609Z,14.55
2017-08-19T04:30:33.088Z,14.61
2017-08-19T04:33:00.565Z,14.63
2017-08-19T04:35:28.049Z,14.44
2017-08-19T04:37:55.499Z,14.37
2017-08-19T04:40:22.978Z,14.60
2017-08-19T04:42:50.441Z,14.52
2017-08-19T04:45:17.941Z,14.45
2017-08-19T04:47:45.396Z,14.42
2017-08-19T04:50:12.877Z,14.36
2017-08-19T04:52:40.361Z,14.41
2017-08-19T04:55:07.841Z,14.34
2017-08-19T04:57:35.553Z,14.37
2017-08-19T05:00:03.064Z,14.26
2017-08-19T05:02:30.600Z,14.20
2017-08-19T05:04:58.053Z,14.25
2017-08-19T05:07:25.625Z,14.25
2017-08-19T05:09:53.176Z,14.40
2017-08-19T05:12:20.662Z,14.73
2017-08-19T05:14:48.112Z,15.10
2017-08-19T05:17:15.649Z,15.44
2017-08-19T05:19:43.220Z,15.60
2017-08-19T05:22:13.318Z,15.95
2017-08-19T05:24:40.941Z,16.25
2017-08-19T05:27:08.429Z,16.43
2017-08-19T05:29:35.905Z,16.74
2017-08-19T05:32:03.422Z,17.06
2017-08-19T05:34:30.912Z,17.02
2017-08-19T05:36:58.367Z,17.29
2017-08-19T05:39:25.844Z,17.36
2017-08-19T05:41:53.485Z,17.54
2017-08-19T05:44:20.969Z,17.88
2017-08-19T05:46:48.453Z,17.93
2017-08-19T05:49:15.961Z,18.25
2017-08-19T05:51:43.418Z,18.26
2017-08-19T05:54:10.897Z,18.19
2017-08-19T05:56:38.408Z,18.28
2017-08-19T05:59:05.870Z,18.39
2017-08-19T06:01:33.429Z,18.24
2017-08-19T06:04:00.889Z,18.39
2017-08-19T06:06:28.407Z,18.45
2017-08-19T06:08:55.869Z,18.46
2017-08-19T06:11:23.383Z,18.61
2017-08-19T06:13:50.861Z,18.52
2017-08-19T06:16:18.410Z,18.25
2017-08-19T06:18:45.905Z,18.21
2017-08-19T06:21:13.359Z,17.91
2017-08-19T06:23:40.835Z,18.01
2017-08-19T06:26:08.300Z,17.96
2017-08-19T06:28:35.780Z,18.08
2017-08-19T06:31:03.380Z,18.02
2017-08-19T06:33:30.901Z,18.14
2017-08-19T06:35:58.458Z,18.02
2017-08-19T06:38:26.004Z,17.96
2017-08-19T06:40:53.577Z,17.97
2017-08-19T06:43:21.032Z,18.09
2017-08-19T06:45:48.585Z,18.01
2017-08-19T06:48:16.140Z,18.05
2017-08-19T06:50:43.630Z,17.92
2017-08-19T06:53:11.084Z,17.80
2017-08-19T06:55:38.608Z,17.92
2017-08-19T06:58:06.163Z,17.83
2017-08-19T07:00:33.705Z,18.03
2017-08-19T07:03:01.159Z,17.86
2017-08-19T07:05:28.750Z,17.88
2017-08-19T07:07:56.339Z,17.81
2017-08-19T07:10:23.892Z,17.85
2017-08-19T07:12:51.414Z,17.98
2017-08-19T07:15:19.558Z,18.18
2017-08-19T07:17:47.078Z,18.06
2017-08-19T07:20:14.552Z,18.12
2017-08-19T07:22:42.012Z,18.38
2017-08-19T07:25:09.501Z,18.36
2017-08-19T07:27:37.173Z,18.36
2017-08-19T07:30:04.649Z,18.22
2017-08-19T07:32:32.129Z,18.47
2017-08-19T07:34:59.665Z,18.43
2017-08-19T07:37:27.221Z,18.45
2017-08-19T07:39:54.766Z,18.61
2017-08-19T07:42:22.241Z,18.81
2017-08-19T07:44:49.691Z,18.64
2017-08-19T07:47:17.193Z,18.87
2017-08-19T07:49:44.657Z,18.89
2017-08-19T07:52:12.134Z,18.93
2017-08-19T07:54:39.916Z,19.00
2017-08-19T07:57:07.486Z,19.08
2017-08-19T07:59:35.049Z,18.93
2017-08-19T08:02:02.539Z,19.17
2017-08-19T08:04:29.998Z,18.95
2017-08-19T08:06:57.537Z,19.08
2017-08-19T08:09:25.087Z,19.22
2017-08-19T08:11:52.549Z,19.22
2017-08-19T08:14:20.090Z,19.46
2017-08-19T08:16:47.540Z,19.47
2017-08-19T08:19:15.129Z,19.74
2017-08-19T08:21:42.678Z,19.91
2017-08-19T08:24:10.270Z,19.90
2017-08-19T08:26:37.775Z,19.78
2017-08-19T08:29:05.245Z,19.91
2017-08-19T08:31:32.864Z,19.83
2017-08-19T08:34:00.363Z,20.05
2017-08-19T08:36:27.907Z,20.20
2017-08-19T08:38:55.472Z,20.31
2017-08-19T08:41:22.944Z,20.38
2017-08-19T08:43:50.442Z,20.27
2017-08-19T08:46:17.941Z,20.59
2017-08-19T08:48:45.407Z,20.55
2017-08-19T08:51:12.865Z,20.67
2017-08-19T08:53:40.362Z,20.94
2017-08-19T08:56:07.876Z,20.97
2017-08-19T08:58:35.387Z,20.76
2017-08-19T09:01:02.869Z,21.15
2017-08-19T09:03:30.328Z,20.97
2017-08-19T09:05:57.809Z,20.68
2017-08-19T09:08:25.405Z,21.10
2017-08-19T09:10:53.103Z,20.63
2017-08-19T09:13:20.677Z,21.00
2017-08-19T09:15:48.373Z,20.95
2017-08-19T09:18:15.846Z,20.98
2017-08-19T09:20:43.361Z,21.17
2017-08-19T09:23:10.889Z,21.69
2017-08-19T09:25:38.469Z,21.40
2017-08-19T09:28:05.928Z,21.60
2017-08-19T09:30:33.409Z,21.43
2017-08-19T09:33:00.941Z,21.62
2017-08-19T09:35:28.402Z,21.77
2017-08-19T09:37:55.884Z,21.77
2017-08-19T09:40:23.341Z,21.75
2017-08-19T09:42:50.922Z,21.99
2017-08-19T09:45:18.462Z,21.72
2017-08-19T09:47:46.058Z,21.58
2017-08-19T09:50:13.508Z,21.68
2017-08-19T09:52:41.008Z,21.77
2017-08-19T09:55:08.565Z,21.92
2017-08-19T09:57:36.081Z,21.88
2017-08-19T10:00:03.576Z,22.04
2017-08-19T10:02:31.907Z,22.07
2017-08-19T10:04:59.410Z,21.97
2017-08-19T10:07:26.907Z,22.38
2017-08-19T10:09:55.369Z,22.33
2017-08-19T10:12:22.820Z,22.36
2017-08-19T10:14:50.307Z,22.63
2017-08-19T10:17:17.768Z,22.56
2017-08-19T10:19:45.246Z,22.73
2017-08-19T10:22:12.749Z,22.61
2017-08-19T10:24:40.344Z,22.63
2017-08-19T10:27:07.818Z,22.83
2017-08-19T10:29:35.309Z,22.77
2017-08-19T10:32:02.774Z,22.78
2017-08-19T10:34:30.252Z,22.80
2017-08-19T10:36:57.776Z,22.83
2017-08-19T10:39:25.345Z,23.17
2017-08-19T10:41:52.788Z,23.08
2017-08-19T10:44:20.264Z,23.00
2017-08-19T10:46:47.808Z,23.25
2017-08-19T10:49:15.289Z,22.87
2017-08-19T10:51:42.820Z,22.96
2017-08-19T10:54:10.321Z,22.95
2017-08-19T10:56:37.893Z,22.72
2017-08-19T10:59:05.366Z,22.90
2017-08-19T11:01:32.969Z,22.88
2017-08-19T11:04:00.546Z,23.25
2017-08-19T11:06:28.083Z,23.01
2017-08-19T11:08:55.632Z,23.33
2017-08-19T11:11:23.115Z,22.60
2017-08-19T11:13:50.577Z,22.67
2017-08-19T11:16:18.065Z,22.78
2017-08-19T11:18:45.579Z,22.62
2017-08-19T11:21:13.086Z,22.60
2017-08-19T11:23:40.584Z,22.60
2017-08-19T11:26:08.070Z,22.22
2017-08-19T11:28:35.535Z,22.39
2017-08-19T11:31:02.996Z,22.89
2017-08-19T11:33:30.476Z,22.30
2017-08-19T11:35:57.934Z,22.14
2017-08-19T11:38:25.423Z,22.16
2017-08-19T11:40:52.911Z,22.06
2017-08-19T11:43:20.384Z,21.98
2017-08-19T11:45:47.882Z,21.95
2017-08-19T11:48:15.344Z,21.79
2017-08-19T11:50:42.810Z,21.96
2017-08-19T11:53:10.333Z,21.71
2017-08-19T11:55:37.884Z,21.73
2017-08-19T11:58:05.381Z,22.18
2017-08-19T12:00:32.938Z,22.44
2017-08-19T12:03:00.553Z,22.78
2017-08-19T12:05:28.057Z,22.91
2017-08-19T12:07:55.521Z,23.26
2017-08-19T12:10:23.122Z,23.17
2017-08-19T12:12:50.585Z,23.59
2017-08-19T12:15:18.093Z,23.31
2017-08-19T12:17:45.734Z,22.94
2017-08-19T12:20:13.562Z,22.48
2017-08-19T12:22:41.080Z,22.37
2017-08-19T12:25:08.884Z,22.23
2017-08-19T12:27:36.362Z,22.45
2017-08-19T12:30:03.962Z,22.72
2017-08-19T12:32:31.555Z,22.39
2017-08-19T12:34:59.299Z,22.37
2017-08-19T12:37:27.187Z,22.43
2017-08-19T12:39:55.174Z,22.70
2017-08-19T12:42:22.699Z,22.39
2017-08-19T12:44:50.155Z,22.79
2017-08-19T12:47:17.673Z,22.86
2017-08-19T12:49:45.864Z,22.67
2017-08-19T12:52:13.778Z,22.59
2017-08-19T12:54:41.533Z,22.66
2017-08-19T12:57:09.317Z,22.76
2017-08-19T12:59:37.347Z,22.69
2017-08-19T13:02:05.064Z,22.91
2017-08-19T13:04:32.708Z,22.80
2017-08-19T13:07:00.417Z,22.58
2017-08-19T13:09:27.866Z,22.38
2017-08-19T13:11:56.188Z,22.65
2017-08-19T13:14:23.805Z,22.70
2017-08-19T13:16:51.379Z,22.67
2017-08-19T13:19:19.305Z,22.60
2017-08-19T13:21:46.993Z,22.50
2017-08-19T13:24:14.900Z,22.03
2017-08-19T13:26:42.794Z,22.54
2017-08-19T13:29:10.860Z,22.49
2017-08-19T13:31:38.321Z,22.42
2017-08-19T13:34:05.913Z,22.49
2017-08-19T13:36:33.762Z,22.53
2017-08-19T13:39:01.301Z,22.51
2017-08-19T13:41:28.750Z,22.41
2017-08-19T13:43:56.245Z,22.16
2017-08-19T13:46:23.814Z,22.33
2017-08-19T13:48:51.289Z,22.56
2017-08-19T13:51:18.757Z,22.27
2017-08-19T13:53:46.281Z,22.51
2017-08-19T13:56:13.845Z,22.63
2017-08-19T13:58:41.334Z,22.96
2017-08-19T14:01:08.860Z,22.83
2017-08-19T14:03:36.418Z,22.75
2017-08-19T14:06:03.890Z,23.01
2017-08-19T14:08:31.351Z,22.80
2017-08-19T14:10:59.005Z,23.07
2017-08-19T14:13:26.561Z,23.36
2017-08-19T14:15:54.080Z,23.18
2017-08-19T14:18:21.543Z,23.15
2017-08-19T14:20:49.021Z,23.10
2017-08-19T14:23:16.663Z,22.77
2017-08-19T14:25:44.183Z,22.62
2017-08-19T14:28:12.090Z,22.93
2017-08-19T14:30:39.606Z,22.70
2017-08-19T14:33:07.068Z,22.74
2017-08-19T14:35:34.538Z,22.93
2017-08-19T14:38:02.033Z,22.91
2017-08-19T14:40:29.669Z,23.34
2017-08-19T14:42:57.189Z,23.23
2017-08-19T14:45:24.660Z,23.61
2017-08-19T14:47:52.158Z,23.77
2017-08-19T14:50:19.614Z,23.51
2017-08-19T14:52:47.184Z,23.33
2017-08-19T14:55:14.647Z,23.09
2017-08-19T14:57:42.179Z,23.18
2017-08-19T15:00:09.643Z,22.82
2017-08-19T15:02:37.137Z,23.03
2017-08-19T15:05:04.604Z,23.43
2017-08-19T15:07:32.065Z,23.47
2017-08-19T15:09:59.549Z,23.44
2017-08-19T15:12:27.057Z,23.28
2017-08-19T15:14:54.601Z,23.40
2017-08-19T15:17:22.069Z,23.65
2017-08-19T15:19:49.601Z,23.02
2017-08-19T15:22:17.071Z,23.03
2017-08-19T15:24:44.630Z,23.04
2017-08-19T15:27:12.191Z,23.09
2017-08-19T15:29:39.734Z,23.35
2017-08-19T15:32:07.214Z,23.11
2017-08-19T15:34:34.766Z,22.99
2017-08-19T15:37:02.245Z,22.94
2017-08-19T15:39:29.781Z,22.71
2017-08-19T15:41:57.249Z,22.74
2017-08-19T15:44:24.727Z,22.67
2017-08-19T15:46:52.215Z,22.79
2017-08-19T15:49:19.688Z,22.48
2017-08-19T15:51:47.176Z,22.60
2017-08-19T15:54:14.705Z,22.83
2017-08-19T15:56:42.449Z,22.94
2017-08-19T15:59:09.942Z,22.95
2017-08-19T16:01:37.504Z,22.67
2017-08-19T16:04:04.977Z,22.84
2017-08-19T16:06:32.495Z,23.05
2017-08-19T16:09:00.276Z,22.89
2017-08-19T16:11:27.763Z,22.71
2017-08-19T16:13:55.293Z,22.69
2017-08-19T16:16:22.804Z,22.64
2017-08-19T16:18:50.303Z,22.44
2017-08-19T16:21:17.811Z,22.31
2017-08-19T16:23:45.293Z,22.14
2017-08-19T16:26:12.788Z,22.26
2017-08-19T16:28:40.266Z,22.21
2017-08-19T16:31:07.770Z,22.26
2017-08-19T16:33:35.290Z,22.22
2017-08-19T16:36:02.761Z,22.16
2017-08-19T16:38:30.252Z,22.10
2017-08-19T16:40:57.729Z,22.06
2017-08-19T16:43:25.228Z,21.99
2017-08-19T16:45:52.733Z,21.80
2017-08-19T16:48:20.254Z,21.79
2017-08-19T16:50:47.792Z,21.71
2017-08-19T16:53:15.291Z,21.78
2017-08-19T16:55:42.779Z,21.76
2017-08-19T16:58:10.278Z,21.69
2017-08-19T17:03:11.626Z,21.69
2017-08-19T17:05:39.088Z,21.77
2017-08-19T17:08:06.572Z,21.82
2017-08-19T17:10:34.047Z,21.81
2017-08-19T17:13:01.564Z,21.57
2017-08-19T17:15:29.050Z,21.62
2017-08-19T17:17:56.670Z,21.57
2017-08-19T17:20:24.230Z,21.48
2017-08-19T17:22:51.725Z,21.44
2017-08-19T17:25:19.194Z,21.42
2017-08-19T17:27:46.666Z,21.42
2017-08-19T17:30:14.158Z,21.52
2017-08-19T17:32:41.693Z,21.40
2017-08-19T17:35:09.245Z,21.28
2017-08-19T17:37:36.706Z,21.21
2017-08-19T17:40:04.239Z,21.09
2017-08-19T17:42:31.701Z,21.06
2017-08-19T17:44:59.665Z,20.61
2017-08-19T17:47:27.125Z,20.40
2017-08-19T17:49:54.689Z,20.10
2017-08-19T17:52:22.561Z,19.75
2017-08-19T17:54:50.126Z,19.48
2017-08-19T17:57:17.610Z,19.64
2017-08-19T17:59:45.129Z,19.34
2017-08-19T18:02:12.590Z,19.51
2017-08-19T18:04:40.114Z,19.61
2017-08-19T18:07:07.609Z,19.32
2017-08-19T18:09:35.084Z,19.42
2017-08-19T18:12:02.565Z,19.49
2017-08-19T18:14:30.010Z,19.38
2017-08-19T18:16:57.485Z,19.40
2017-08-19T18:19:24.945Z,19.39
2017-08-19T18:21:52.424Z,18.85
2017-08-19T18:24:19.992Z,18.70
2017-08-19T18:26:47.474Z,18.18
2017-08-19T18:29:14.944Z,18.42
2017-08-19T18:31:42.459Z,18.63
2017-08-19T18:34:09.915Z,18.34
2017-08-19T18:36:37.479Z,18.29
2017-08-19T18:39:05.046Z,18.51
2017-08-19T18:41:32.523Z,18.42
2017-08-19T18:44:00.053Z,18.48
2017-08-19T18:46:28.940Z,18.35
2017-08-19T18:48:57.965Z,18.11
2017-08-19T18:51:26.054Z,18.20
2017-08-19T18:53:54.882Z,17.95
2017-08-19T18:56:23.794Z,17.90
2017-08-19T18:58:51.483Z,18.24
2017-08-19T19:01:20.650Z,17.91
2017-08-19T19:03:49.708Z,18.06
2017-08-19T19:06:18.652Z,18.23
2017-08-19T19:08:47.440Z,18.18
2017-08-19T19:11:16.495Z,18.39
2017-08-19T19:13:45.499Z,18.28
2017-08-19T19:16:14.543Z,18.24
2017-08-19T19:18:43.723Z,18.31
2017-08-19T19:21:11.323Z,18.37
2017-08-19T19:23:38.807Z,18.20
2017-08-19T19:26:06.247Z,18.26
2017-08-19T19:28:33.727Z,18.29
2017-08-19T19:31:01.245Z,18.38
2017-08-19T19:33:28.955Z,18.19
2017-08-19T19:35:56.416Z,18.02
2017-08-19T19:38:23.950Z,18.32
2017-08-19T19:40:51.416Z,18.16
2017-08-19T19:43:18.904Z,18.16
2017-08-19T19:45:46.911Z,18.18
2017-08-19T19:48:14.409Z,18.19
2017-08-19T19:50:41.965Z,18.21
2017-08-19T19:53:09.448Z,18.15
2017-08-19T19:55:36.913Z,18.24
2017-08-19T19:58:04.535Z,18.28
2017-08-19T20:00:31.998Z,18.22
2017-08-19T20:02:59.688Z,18.37
2017-08-19T20:05:27.214Z,18.31
2017-08-19T20:07:54.773Z,18.20
2017-08-19T20:10:22.526Z,18.16
2017-08-19T20:12:50.125Z,17.85
2017-08-19T20:15:17.639Z,17.66
2017-08-19T20:17:45.109Z,17.58
2017-08-19T20:20:12.619Z,17.46
2017-08-19T20:22:40.417Z,17.30
2017-08-19T20:25:07.886Z,17.45
2017-08-19T20:27:35.349Z,17.26
2017-08-19T20:30:02.833Z,17.18
2017-08-19T20:32:30.300Z,17.07
2017-08-19T20:34:58.458Z,17.12
2017-08-19T20:37:25.980Z,16.81
2017-08-19T20:39:53.487Z,16.78
2017-08-19T20:42:21.225Z,16.84
2017-08-19T20:44:48.769Z,16.69
2017-08-19T20:47:16.525Z,16.75
2017-08-19T20:49:44.053Z,16.67
2017-08-19T20:52:11.545Z,16.67
2017-08-19T20:54:39.015Z,16.77
2017-08-19T20:57:06.524Z,16.58
2017-08-19T20:59:34.398Z,16.70
2017-08-19T21:02:01.847Z,16.64
2017-08-19T21:04:29.330Z,16.61
2017-08-19T21:06:56.834Z,16.37
2017-08-19T21:09:24.325Z,16.34
2017-08-19T21:11:52.074Z,16.46
2017-08-19T21:14:19.550Z,16.38
2017-08-19T21:16:47.009Z,16.25
2017-08-19T21:19:14.493Z,16.25
2017-08-19T21:21:41.981Z,16.26
2017-08-19T21:24:10.769Z,16.12
2017-08-19T21:26:38.254Z,16.26
2017-08-19T21:29:05.757Z,16.20
2017-08-19T21:31:33.248Z,16.12
2017-08-19T21:34:00.713Z,16.07
2017-08-19T21:36:28.201Z,16.02
2017-08-19T21:38:55.643Z,16.04
2017-08-19T21:41:23.162Z,15.87
2017-08-19T21:43:50.739Z,15.85
2017-08-19T21:46:18.277Z,15.86
2017-08-19T21:48:45.805Z,15.38
2017-08-19T21:51:13.271Z,15.83
2017-08-19T21:53:40.827Z,15.68
2017-08-19T21:56:08.309Z,15.72
2017-08-19T21:58:35.774Z,15.70
2017-08-19T22:01:03.265Z,15.78
2017-08-19T22:03:30.761Z,15.33
2017-08-19T22:05:58.296Z,15.06
2017-08-19T22:08:25.775Z,15.07
2017-08-19T22:10:53.258Z,15.49
2017-08-19T22:13:20.733Z,15.67
2017-08-19T22:15:48.217Z,15.70
2017-08-19T22:18:15.672Z,15.44
2017-08-19T22:20:43.152Z,15.61
2017-08-19T22:23:10.608Z,15.39
2017-08-19T22:25:38.103Z,15.23
2017-08-19T22:28:05.570Z,15.30
2017-08-19T22:30:33.056Z,15.38
2017-08-19T22:33:00.514Z,15.46
2017-08-19T22:35:27.997Z,15.25
2017-08-19T22:37:55.549Z,15.24
2017-08-19T22:40:23.023Z,15.20
2017-08-19T22:42:50.613Z,15.08
2017-08-19T22:45:18.097Z,14.75
2017-08-19T22:56:24.060Z,14.67
2017-08-19T22:58:52.479Z,14.79
2017-08-19T23:01:19.966Z,14.66
2017-08-19T23:03:47.454Z,14.57
2017-08-19T23:06:15.095Z,14.45
2017-08-19T23:08:42.753Z,14.05
2017-08-19T23:11:10.299Z,14.39
2017-08-19T23:13:37.765Z,14.04
2017-08-19T23:16:05.248Z,14.10
2017-08-19T23:18:32.778Z,14.20
2017-08-19T23:21:00.499Z,14.31
2017-08-19T23:23:27.987Z,14.32
2017-08-19T23:25:55.554Z,14.50
2017-08-19T23:28:23.007Z,14.41
2017-08-19T23:30:50.470Z,14.48
2017-08-19T23:33:17.929Z,14.57
2017-08-19T23:35:45.430Z,14.74
2017-08-19T23:38:12.908Z,13.64
2017-08-19T23:40:40.412Z,14.40
2017-08-19T23:43:07.874Z,14.43
2017-08-19T23:45:35.383Z,14.37
2017-08-19T23:48:02.880Z,13.94
2017-08-19T23:50:30.370Z,14.39
2017-08-19T23:52:57.873Z,14.41
2017-08-19T23:55:25.327Z,13.85
2017-08-19T23:57:52.806Z,13.38
